Time;durP1;ratioP1;P1;durP2;ratioP2;P2;SDS_P1;SDS_P2;PMS_P1;PMS_P2;Temp;Humidity;BMP_temperature;BMP_pressure;BME280_temperature;BME280_humidity;BME280_pressure;Samples;Min_cycle;Max_cycle;Signal;HPM_P1;HPM_P2
2022/06/07 00:00:25;;;;;;;0.90;0.70;;;;;;;;;;5089511;28;20075;-65
2022/06/07 00:02:51;;;;;;;0.90;0.70;;;;;;;;;;5094382;28;20032;-66
2022/06/07 00:05:17;;;;;;;0.20;0.20;;;;;;;;;;5053727;28;20498;-68
2022/06/07 00:07:42;;;;;;;2.05;1.00;;;;;;;;;;5075758;28;20036;-67
2022/06/07 00:10:07;;;;;;;1.08;0.68;;;;;;;;;;5056164;28;20478;-66
2022/06/07 00:12:33;;;;;;;0.22;0.22;;;;;;;;;;5056441;28;20062;-67
2022/06/07 00:14:59;;;;;;;0.15;0.15;;;;;;;;;;5056221;28;20028;-66
2022/06/07 00:17:24;;;;;;;3.72;0.55;;;;;;;;;;5078920;28;20036;-67
2022/06/07 00:19:50;;;;;;;0.13;0.13;;;;;;;;;;5094379;28;20113;-67
2022/06/07 00:22:16;;;;;;;0.20;0.20;;;;;;;;;;5094411;28;20075;-67
2022/06/07 00:24:42;;;;;;;0.10;0.10;;;;;;;;;;5059424;28;20040;-67
2022/06/07 00:27:08;;;;;;;0.20;0.20;;;;;;;;;;5075866;28;20047;-66
2022/06/07 00:29:34;;;;;;;0.20;0.20;;;;;;;;;;5094258;28;20036;-67
2022/06/07 00:32:01;;;;;;;0.10;0.10;;;;;;;;;;5055799;28;20032;-68
2022/06/07 00:34:28;;;;;;;0.20;0.20;;;;;;;;;;5049232;28;20029;-68
2022/06/07 00:36:55;;;;;;;0.20;0.20;;;;;;;;;;5046975;28;20025;-67
2022/06/07 00:39:20;;;;;;;0.43;0.43;;;;;;;;;;5065452;28;20085;-67
2022/06/07 00:41:46;;;;;;;2.78;1.40;;;;;;;;;;5065902;28;20040;-67
2022/06/07 00:44:18;;;;;;;0.10;0.10;;;;;;;;;;5083142;28;20031;-67
2022/06/07 00:46:45;;;;;;;0.57;0.57;;;;;;;;;;5066194;28;20036;-68
2022/06/07 00:49:12;;;;;;;0.20;0.20;;;;;;;;;;5056100;28;20035;-67
2022/06/07 00:51:39;;;;;;;0.20;0.20;;;;;;;;;;5064090;28;20423;-68
2022/06/07 00:54:05;;;;;;;0.55;0.50;;;;;;;;;;5062750;28;20024;-66
2022/06/07 00:56:31;;;;;;;1.30;1.20;;;;;;;;;;5065010;28;20032;-68
2022/06/07 00:59:00;;;;;;;4.07;1.95;;;;;;;;;;5081939;28;20077;-66
2022/06/07 01:01:28;;;;;;;12.55;3.08;;;;;;;;;;5064351;28;20048;-68
2022/06/07 01:03:54;;;;;;;1.25;0.90;;;;;;;;;;5081047;28;20034;-67
2022/06/07 01:11:47;;;;;;;7.38;2.05;;;;;;;;;;5040844;28;20032;-67
2022/06/07 01:14:16;;;;;;;0.30;0.30;;;;;;;;;;5039154;28;20051;-67
2022/06/07 01:16:42;;;;;;;3.53;0.75;;;;;;;;;;5073229;28;20472;-66
2022/06/07 01:19:07;;;;;;;0.85;0.85;;;;;;;;;;5073175;28;20464;-66
2022/06/07 01:21:40;;;;;;;5.30;2.53;;;;;;;;;;5039080;28;20133;-66
2022/06/07 01:24:07;;;;;;;;;;;;;;;;;;5039444;28;20036;-67
2022/06/07 01:26:44;;;;;;;3.15;1.67;;;;;;;;;;5059230;28;19924;-68
2022/06/07 01:29:10;;;;;;;3.10;1.63;;;;;;;;;;5057060;28;20028;-67
2022/06/07 01:31:37;;;;;;;3.85;1.02;;;;;;;;;;5073959;28;20093;-67
2022/06/07 01:34:04;;;;;;;2.65;2.00;;;;;;;;;;5058495;28;20085;-67
2022/06/07 01:36:30;;;;;;;3.40;1.05;;;;;;;;;;5074944;28;20416;-67
2022/06/07 01:41:54;;;;;;;5.43;3.83;;;;;;;;;;5092988;28;20054;-66
2022/06/07 01:44:22;;;;;;;8.88;5.05;;;;;;;;;;5058344;28;20036;-67
2022/06/07 01:46:48;;;;;;;2.83;1.55;;;;;;;;;;5074748;28;20020;-68
2022/06/07 01:49:14;;;;;;;9.68;4.88;;;;;;;;;;5074913;28;20067;-67
2022/06/07 01:51:40;;;;;;;17.38;5.18;;;;;;;;;;5074621;28;20028;-66
2022/06/07 01:54:06;;;;;;;2.10;1.63;;;;;;;;;;5074800;28;20051;-66
2022/06/07 01:56:31;;;;;;;9.25;1.40;;;;;;;;;;5092896;28;20107;-66
2022/06/07 01:58:57;;;;;;;6.47;3.00;;;;;;;;;;5092710;28;20042;-67
2022/06/07 02:01:22;;;;;;;1.70;1.52;;;;;;;;;;5092820;28;20054;-68
2022/06/07 02:03:48;;;;;;;2.33;1.15;;;;;;;;;;5091908;28;20031;-68
2022/06/07 02:06:13;;;;;;;9.30;2.20;;;;;;;;;;5092562;28;20111;-67
2022/06/07 02:08:42;;;;;;;2.47;1.70;;;;;;;;;;5074960;28;20032;-68
2022/06/07 02:11:12;;;;;;;0.85;0.85;;;;;;;;;;5074871;28;20122;-68
2022/06/07 02:13:40;;;;;;;6.55;3.10;;;;;;;;;;5058063;28;20032;-67
2022/06/07 02:16:06;;;;;;;4.07;2.33;;;;;;;;;;5092534;28;20051;-67
2022/06/07 02:18:32;;;;;;;0.60;0.60;;;;;;;;;;5092333;28;20024;-67
2022/06/07 02:21:16;;;;;;;3.15;1.60;;;;;;;;;;5060306;28;20040;-69
2022/06/07 02:23:42;;;;;;;13.15;3.08;;;;;;;;;;5057900;28;20039;-67
2022/06/07 02:26:08;;;;;;;2.35;1.67;;;;;;;;;;5092564;28;20471;-67
2022/06/07 02:28:36;;;;;;;20.52;3.63;;;;;;;;;;5092375;28;20032;-67
2022/06/07 02:31:03;;;;;;;7.38;4.50;;;;;;;;;;5057500;28;20024;-67
2022/06/07 02:33:28;;;;;;;4.22;2.70;;;;;;;;;;5092103;28;20027;-68
2022/06/07 02:35:54;;;;;;;1.02;0.75;;;;;;;;;;5092532;28;20024;-68
2022/06/07 02:38:20;;;;;;;8.70;8.07;;;;;;;;;;5093702;28;20502;-68
2022/06/07 02:40:47;;;;;;;14.18;4.18;;;;;;;;;;5092902;28;20115;-69
2022/06/07 02:43:12;;;;;;;0.90;0.82;;;;;;;;;;5074919;28;20609;-67
2022/06/07 02:45:38;;;;;;;0.20;0.20;;;;;;;;;;5073966;28;20111;-69
2022/06/07 02:48:03;;;;;;;0.20;0.20;;;;;;;;;;5092129;28;20036;-68
2022/06/07 02:50:30;;;;;;;7.70;5.20;;;;;;;;;;5074094;28;20028;-67
2022/06/07 02:52:55;;;;;;;0.10;0.10;;;;;;;;;;5092291;28;20101;-67
2022/06/07 02:55:25;;;;;;;0.17;0.17;;;;;;;;;;5074017;28;20098;-68
2022/06/07 02:57:55;;;;;;;0.20;0.20;;;;;;;;;;5073964;28;20053;-67
2022/06/07 03:00:23;;;;;;;0.20;0.20;;;;;;;;;;5073858;28;20040;-68
2022/06/07 03:02:49;;;;;;;0.13;0.13;;;;;;;;;;5069972;28;20077;-67
2022/06/07 03:05:15;;;;;;;0.20;0.20;;;;;;;;;;5069936;28;20032;-68
2022/06/07 03:07:50;;;;;;;0.10;0.10;;;;;;;;;;5069997;28;20085;-68
2022/06/07 03:10:17;;;;;;;0.20;0.20;;;;;;;;;;5052797;28;20060;-67
2022/06/07 03:12:44;;;;;;;0.10;0.10;;;;;;;;;;5069604;28;20035;-68
2022/06/07 03:15:14;;;;;;;0.20;0.20;;;;;;;;;;5071349;28;20407;-71
2022/06/07 03:17:41;;;;;;;0.10;0.10;;;;;;;;;;5056594;28;20434;-67
2022/06/07 03:20:08;;;;;;;0.85;0.85;;;;;;;;;;5072682;28;20395;-68
2022/06/07 03:22:36;;;;;;;0.10;0.10;;;;;;;;;;5056407;28;20044;-68
2022/06/07 03:25:05;;;;;;;0.20;0.20;;;;;;;;;;5073268;28;20098;-70
2022/06/07 03:27:36;;;;;;;0.20;0.20;;;;;;;;;;5056298;28;20350;-67
2022/06/07 03:30:05;;;;;;;0.20;0.20;;;;;;;;;;5056091;28;20035;-67
2022/06/07 03:32:31;;;;;;;0.20;0.20;;;;;;;;;;5090768;28;20036;-71
2022/06/07 03:34:57;;;;;;;0.10;0.10;;;;;;;;;;5072967;28;20057;-68
2022/06/07 03:37:25;;;;;;;1.25;1.25;;;;;;;;;;5073116;28;20073;-67
2022/06/07 03:39:51;;;;;;;0.95;0.95;;;;;;;;;;5090771;28;20566;-67
2022/06/07 03:42:17;;;;;;;0.20;0.20;;;;;;;;;;5072050;28;20044;-68
2022/06/07 03:44:46;;;;;;;0.13;0.13;;;;;;;;;;5055918;28;20165;-70
2022/06/07 03:47:15;;;;;;;0.10;0.10;;;;;;;;;;5056755;28;20043;-67
2022/06/07 03:49:41;;;;;;;0.30;0.30;;;;;;;;;;5056321;28;20092;-67
2022/06/07 03:52:07;;;;;;;0.10;0.10;;;;;;;;;;5090680;28;20387;-67
2022/06/07 03:54:38;;;;;;;0.10;0.10;;;;;;;;;;5072811;28;20043;-67
2022/06/07 03:57:05;;;;;;;0.20;0.20;;;;;;;;;;5072387;28;20036;-67
2022/06/07 03:59:34;;;;;;;0.20;0.20;;;;;;;;;;5072141;28;20119;-69
2022/06/07 04:02:01;;;;;;;0.30;0.30;;;;;;;;;;5071327;28;20490;-67
2022/06/07 04:04:27;;;;;;;0.45;0.45;;;;;;;;;;5072080;28;20036;-67
2022/06/07 04:09:44;;;;;;;0.10;0.10;;;;;;;;;;5072588;28;20040;-67
2022/06/07 04:12:18;;;;;;;0.30;0.30;;;;;;;;;;5071586;28;20040;-68
2022/06/07 04:14:45;;;;;;;0.10;0.10;;;;;;;;;;5073038;28;20384;-67
2022/06/07 04:17:12;;;;;;;0.60;0.60;;;;;;;;;;5072658;28;20097;-67
2022/06/07 04:19:43;;;;;;;0.13;0.13;;;;;;;;;;5071767;28;20115;-67
2022/06/07 04:22:11;;;;;;;0.22;0.22;;;;;;;;;;5071028;28;20078;-70
2022/06/07 04:24:41;;;;;;;0.63;0.63;;;;;;;;;;5072142;28;20020;-67
2022/06/07 04:27:07;;;;;;;0.20;0.20;;;;;;;;;;5089340;28;20040;-67
2022/06/07 04:29:34;;;;;;;0.20;0.20;;;;;;;;;;5055849;28;20039;-67
2022/06/07 04:32:00;;;;;;;0.20;0.20;;;;;;;;;;5072034;28;20047;-67
2022/06/07 04:34:27;;;;;;;0.13;0.13;;;;;;;;;;5072054;28;20035;-68
2022/06/07 04:36:54;;;;;;;0.32;0.32;;;;;;;;;;5039252;28;20043;-68
2022/06/07 04:39:25;;;;;;;0.20;0.20;;;;;;;;;;5056294;28;20521;-68
2022/06/07 04:42:02;;;;;;;0.20;0.20;;;;;;;;;;5071712;28;20101;-67
2022/06/07 04:44:38;;;;;;;0.20;0.20;;;;;;;;;;5072070;28;20043;-67
2022/06/07 04:47:04;;;;;;;0.22;0.22;;;;;;;;;;5070002;28;20035;-67
2022/06/07 04:49:30;;;;;;;0.28;0.28;;;;;;;;;;5071898;28;20476;-66
2022/06/07 04:51:56;;;;;;;0.28;0.28;;;;;;;;;;5071232;28;20467;-68
2022/06/07 04:54:41;;;;;;;0.20;0.20;;;;;;;;;;5072176;28;20024;-66
2022/06/07 04:57:08;;;;;;;0.20;0.20;;;;;;;;;;5070864;28;20038;-68
2022/06/07 04:59:37;;;;;;;0.20;0.20;;;;;;;;;;5068402;28;20480;-67
2022/06/07 05:02:03;;;;;;;0.17;0.17;;;;;;;;;;5084898;28;20062;-66
2022/06/07 05:04:30;;;;;;;0.50;0.47;;;;;;;;;;5055876;28;20063;-67
2022/06/07 05:07:02;;;;;;;0.20;0.20;;;;;;;;;;5067526;28;20035;-74
2022/06/07 05:09:36;;;;;;;0.68;0.68;;;;;;;;;;5069135;28;20474;-71
2022/06/07 05:12:08;;;;;;;0.20;0.20;;;;;;;;;;5068720;28;20111;-71
2022/06/07 05:14:38;;;;;;;0.20;0.20;;;;;;;;;;5071927;28;20130;-67
2022/06/07 05:17:04;;;;;;;0.25;0.25;;;;;;;;;;5089671;28;20036;-67
2022/06/07 05:19:33;;;;;;;0.20;0.20;;;;;;;;;;5066262;28;20029;-68
2022/06/07 05:22:08;;;;;;;0.20;0.20;;;;;;;;;;5066394;28;20047;-68
2022/06/07 05:24:39;;;;;;;0.13;0.13;;;;;;;;;;5063230;28;20109;-69
2022/06/07 05:27:06;;;;;;;0.20;0.20;;;;;;;;;;5071585;28;20467;-68
2022/06/07 05:29:46;;;;;;;0.20;0.20;;;;;;;;;;5055335;28;20036;-67
2022/06/07 05:32:16;;;;;;;0.20;0.20;;;;;;;;;;5088195;28;20741;-68
2022/06/07 05:34:47;;;;;;;0.50;0.50;;;;;;;;;;5054506;28;20028;-67
2022/06/07 05:37:18;;;;;;;0.68;0.52;;;;;;;;;;5063308;28;20047;-68
2022/06/07 05:39:45;;;;;;;0.20;0.20;;;;;;;;;;5049414;28;20064;-67
2022/06/07 05:42:13;;;;;;;0.20;0.20;;;;;;;;;;5070993;28;20032;-67
2022/06/07 05:44:39;;;;;;;0.28;0.28;;;;;;;;;;5054653;28;20051;-67
2022/06/07 05:47:06;;;;;;;0.20;0.20;;;;;;;;;;5087536;28;20363;-69
2022/06/07 05:49:47;;;;;;;0.20;0.20;;;;;;;;;;5056685;28;20075;-68
2022/06/07 05:52:20;;;;;;;0.20;0.20;;;;;;;;;;5049442;28;20032;-70
2022/06/07 05:54:47;;;;;;;0.70;0.70;;;;;;;;;;5053735;28;20037;-67
2022/06/07 05:57:12;;;;;;;0.20;0.20;;;;;;;;;;5068767;28;20033;-67
2022/06/07 05:59:40;;;;;;;0.20;0.20;;;;;;;;;;5050543;28;20037;-67
2022/06/07 06:02:09;;;;;;;0.28;0.28;;;;;;;;;;5050472;28;20131;-67
2022/06/07 06:04:38;;;;;;;0.20;0.20;;;;;;;;;;5067169;28;20130;-67
2022/06/07 06:07:04;;;;;;;0.73;0.73;;;;;;;;;;5070694;28;20715;-67
2022/06/07 06:12:21;;;;;;;1.95;0.77;;;;;;;;;;5070228;28;20039;-71
2022/06/07 06:15:13;;;;;;;0.20;0.20;;;;;;;;;;5071612;28;20047;-68
2022/06/07 06:17:40;;;;;;;0.20;0.20;;;;;;;;;;5070455;28;20028;-69
2022/06/07 06:20:27;;;;;;;2.25;2.05;;;;;;;;;;5056780;28;20028;-68
2022/06/07 06:22:56;;;;;;;0.20;0.20;;;;;;;;;;5070427;28;20032;-67
2022/06/07 06:25:21;;;;;;;0.20;0.20;;;;;;;;;;5083732;28;20513;-68
2022/06/07 06:27:48;;;;;;;0.10;0.10;;;;;;;;;;5052446;28;20032;-67
2022/06/07 06:30:14;;;;;;;0.20;0.20;;;;;;;;;;5053143;28;20044;-68
2022/06/07 06:32:48;;;;;;;0.20;0.20;;;;;;;;;;5069369;28;20081;-68
2022/06/07 06:35:18;;;;;;;1.25;0.73;;;;;;;;;;5069330;28;20031;-68
2022/06/07 06:37:45;;;;;;;0.20;0.20;;;;;;;;;;5070244;28;20059;-68
2022/06/07 06:40:12;;;;;;;0.20;0.20;;;;;;;;;;5053448;28;20119;-73
2022/06/07 06:42:46;;;;;;;0.30;0.30;;;;;;;;;;5054699;28;20487;-68
2022/06/07 06:45:29;;;;;;;0.20;0.20;;;;;;;;;;5069554;28;20036;-67
2022/06/07 06:48:00;;;;;;;0.20;0.20;;;;;;;;;;5053382;28;20036;-67
2022/06/07 06:50:28;;;;;;;0.30;0.30;;;;;;;;;;5072431;28;20039;-69
2022/06/07 06:52:55;;;;;;;5.82;2.92;;;;;;;;;;5073459;28;20082;-69
2022/06/07 06:55:21;;;;;;;0.47;0.47;;;;;;;;;;5073741;28;20032;-68
2022/06/07 06:57:49;;;;;;;0.30;0.30;;;;;;;;;;5056846;28;20506;-67
2022/06/07 07:00:15;;;;;;;0.28;0.28;;;;;;;;;;5071942;28;20036;-66
2022/06/07 07:02:46;;;;;;;0.20;0.20;;;;;;;;;;5073126;28;20040;-71
2022/06/07 07:05:15;;;;;;;5.55;1.33;;;;;;;;;;5056497;28;20046;-67
2022/06/07 07:07:46;;;;;;;0.22;0.22;;;;;;;;;;5073891;28;20047;-69
2022/06/07 07:10:18;;;;;;;0.30;0.30;;;;;;;;;;5072407;28;20487;-70
2022/06/07 07:12:44;;;;;;;0.30;0.30;;;;;;;;;;5072042;28;20036;-70
2022/06/07 07:15:13;;;;;;;0.32;0.32;;;;;;;;;;5091688;28;20641;-68
2022/06/07 07:18:01;;;;;;;0.30;0.30;;;;;;;;;;5073415;28;20040;-67
2022/06/07 07:20:29;;;;;;;0.20;0.20;;;;;;;;;;5072169;28;20028;-68
2022/06/07 07:22:57;;;;;;;0.30;0.30;;;;;;;;;;5085011;28;20056;-68
2022/06/07 07:25:23;;;;;;;2.58;1.40;;;;;;;;;;5041895;28;20086;-68
2022/06/07 07:27:50;;;;;;;2.08;1.90;;;;;;;;;;5068857;28;20040;-68
2022/06/07 07:30:17;;;;;;;0.30;0.30;;;;;;;;;;5072674;28;20051;-67
2022/06/07 07:32:43;;;;;;;0.40;0.40;;;;;;;;;;5090513;28;20031;-67
2022/06/07 07:35:09;;;;;;;0.40;0.40;;;;;;;;;;5073200;28;20207;-72
2022/06/07 07:37:45;;;;;;;2.15;2.05;;;;;;;;;;5072572;28;20138;-68
2022/06/07 07:40:13;;;;;;;;;;;;;;;;;;5072115;28;20075;-73
2022/06/07 07:42:41;;;;;;;0.52;0.52;;;;;;;;;;5063497;28;20391;-75
2022/06/07 07:45:17;;;;;;;0.95;0.93;;;;;;;;;;5064205;28;20035;-74
2022/06/07 07:47:44;;;;;;;6.53;2.28;;;;;;;;;;5053115;28;20041;-74
2022/06/07 07:50:13;;;;;;;2.47;2.38;;;;;;;;;;5055969;28;20356;-74
2022/06/07 07:52:45;;;;;;;0.50;0.50;;;;;;;;;;5066467;28;20044;-74
2022/06/07 07:55:13;;;;;;;0.30;0.30;;;;;;;;;;5088940;28;20074;-75
2022/06/07 07:57:41;;;;;;;2.42;2.33;;;;;;;;;;5072692;28;20103;-75
2022/06/07 08:00:10;;;;;;;0.52;0.52;;;;;;;;;;5071169;28;20040;-73
2022/06/07 08:02:49;;;;;;;0.40;0.40;;;;;;;;;;5056510;28;20078;-73
2022/06/07 08:05:26;;;;;;;0.30;0.30;;;;;;;;;;5072324;28;20425;-73
2022/06/07 08:07:52;;;;;;;0.30;0.30;;;;;;;;;;5055700;28;20028;-74
2022/06/07 08:10:18;;;;;;;0.30;0.30;;;;;;;;;;5071843;28;20086;-74
2022/06/07 08:12:44;;;;;;;0.30;0.30;;;;;;;;;;5082688;28;20036;-75
2022/06/07 08:15:10;;;;;;;0.30;0.30;;;;;;;;;;5090256;28;20032;-75
2022/06/07 08:17:36;;;;;;;1.08;1.05;;;;;;;;;;5072079;28;20032;-75
2022/06/07 08:20:02;;;;;;;0.30;0.30;;;;;;;;;;5055559;28;20032;-74
2022/06/07 08:22:28;;;;;;;0.47;0.47;;;;;;;;;;5089838;28;20032;-71
2022/06/07 08:24:54;;;;;;;0.40;0.40;;;;;;;;;;5069028;28;20028;-74
2022/06/07 08:27:20;;;;;;;2.67;2.47;;;;;;;;;;5063837;28;20043;-75
2022/06/07 08:29:45;;;;;;;3.17;1.58;;;;;;;;;;5087504;28;20032;-74
2022/06/07 08:32:11;;;;;;;1.45;1.35;;;;;;;;;;5081391;28;20028;-74
2022/06/07 08:37:38;;;;;;;0.30;0.30;;;;;;;;;;5090239;28;20044;-73
2022/06/07 08:40:07;;;;;;;1.48;1.10;;;;;;;;;;5089975;28;20040;-73
2022/06/07 08:42:34;;;;;;;1.05;1.00;;;;;;;;;;5090192;28;20044;-74
2022/06/07 08:45:01;;;;;;;1.35;0.90;;;;;;;;;;5090119;28;20127;-74
2022/06/07 08:47:27;;;;;;;4.28;1.20;;;;;;;;;;5063075;28;20075;-73
2022/06/07 08:49:54;;;;;;;0.40;0.40;;;;;;;;;;5056902;28;20100;-74
2022/06/07 08:52:23;;;;;;;0.98;0.85;;;;;;;;;;5053247;28;20046;-75
2022/06/07 08:54:48;;;;;;;0.30;0.30;;;;;;;;;;5070768;28;20035;-74
2022/06/07 08:57:17;;;;;;;0.40;0.40;;;;;;;;;;5088736;28;20410;-76
2022/06/07 08:59:46;;;;;;;0.30;0.30;;;;;;;;;;5089634;28;20028;-74
2022/06/07 09:02:26;;;;;;;8.40;3.33;;;;;;;;;;5087024;28;20085;-73
2022/06/07 09:04:52;;;;;;;0.50;0.50;;;;;;;;;;5050837;28;20374;-74
2022/06/07 09:07:19;;;;;;;1.55;0.85;;;;;;;;;;5078890;28;20043;-75
2022/06/07 09:12:32;;;;;;;3.63;2.42;;;;;;;;;;5059591;28;20033;-71
2022/06/07 09:15:14;;;;;;;3.85;1.77;;;;;;;;;;5050546;28;20029;-71
2022/06/07 09:17:42;;;;;;;13.13;3.00;;;;;;;;;;5079438;28;20464;-73
2022/06/07 09:20:14;;;;;;;2.53;1.10;;;;;;;;;;5034406;28;20043;-72
2022/06/07 09:22:48;;;;;;;5.47;1.58;;;;;;;;;;5035613;28;20028;-73
2022/06/07 09:25:21;;;;;;;3.70;1.58;;;;;;;;;;5040617;28;20043;-75
2022/06/07 09:27:47;;;;;;;3.92;2.03;;;;;;;;;;5066557;28;20170;-71
2022/06/07 09:30:15;;;;;;;8.77;2.50;;;;;;;;;;5071295;28;20099;-74
2022/06/07 09:32:41;;;;;;;2.87;1.30;;;;;;;;;;5072356;28;20836;-72
2022/06/07 09:35:08;;;;;;;9.35;4.57;;;;;;;;;;5070040;28;20071;-72
2022/06/07 09:37:54;;;;;;;5.18;2.65;;;;;;;;;;5073931;28;20490;-74
2022/06/07 09:40:25;;;;;;;3.10;1.73;;;;;;;;;;5081928;28;20095;-71
2022/06/07 09:42:56;;;;;;;3.45;1.98;;;;;;;;;;5081154;28;20028;-74
2022/06/07 09:45:29;;;;;;;11.25;1.90;;;;;;;;;;5089018;28;20032;-73
2022/06/07 09:47:55;;;;;;;2.33;1.48;;;;;;;;;;5066744;28;20036;-73
2022/06/07 09:50:30;;;;;;;4.93;2.38;;;;;;;;;;5071526;28;20040;-70
2022/06/07 09:52:57;;;;;;;0.30;0.30;;;;;;;;;;5057468;28;20479;-70
2022/06/07 09:55:31;;;;;;;3.78;1.50;;;;;;;;;;5069249;28;20032;-71
2022/06/07 09:58:03;;;;;;;4.18;1.10;;;;;;;;;;5087024;28;20035;-74
2022/06/07 10:01:07;;;;;;;3.83;2.10;;;;;;;;;;5086575;28;20534;-72
2022/06/07 10:03:51;;;;;;;1.77;1.35;;;;;;;;;;4967200;28;20038;-72
2022/06/07 10:06:40;;;;;;;0.85;0.85;;;;;;;;;;4972124;28;20042;-72
2022/06/07 10:09:24;;;;;;;0.77;0.70;;;;;;;;;;5025597;28;20479;-73
2022/06/07 10:11:50;;;;;;;1.17;0.93;;;;;;;;;;5085815;28;20059;-71
2022/06/07 10:14:31;;;;;;;2.40;1.27;;;;;;;;;;5086577;28;20052;-73
2022/06/07 10:17:18;;;;;;;0.50;0.50;;;;;;;;;;5088572;28;20042;-70
2022/06/07 10:20:03;;;;;;;5.03;2.30;;;;;;;;;;5070049;28;20126;-73
2022/06/07 10:22:40;;;;;;;3.08;0.93;;;;;;;;;;5088284;28;20032;-71
2022/06/07 10:25:12;;;;;;;0.50;0.50;;;;;;;;;;5087643;28;20032;-72
2022/06/07 10:27:40;;;;;;;3.13;1.92;;;;;;;;;;5053220;28;20040;-71
2022/06/07 10:30:15;;;;;;;1.75;1.33;;;;;;;;;;5069358;28;20548;-73
2022/06/07 10:32:46;;;;;;;2.47;1.30;;;;;;;;;;5088361;28;20039;-71
2022/06/07 10:35:24;;;;;;;0.40;0.40;;;;;;;;;;5088517;28;20051;-70
2022/06/07 10:37:53;;;;;;;0.40;0.40;;;;;;;;;;5088442;28;20412;-71
2022/06/07 10:40:21;;;;;;;0.80;0.80;;;;;;;;;;5087368;28;20057;-75
2022/06/07 10:42:47;;;;;;;;;;;;;;;;;;5070494;28;20044;-72
2022/06/07 10:45:19;;;;;;;0.40;0.40;;;;;;;;;;5088269;28;20335;-77
2022/06/07 10:47:56;;;;;;;0.63;0.63;;;;;;;;;;5053490;28;20112;-71
2022/06/07 10:50:28;;;;;;;6.72;1.27;;;;;;;;;;5069572;28;20466;-72
2022/06/07 10:53:32;;;;;;;0.95;0.95;;;;;;;;;;5052905;28;20030;-71
2022/06/07 10:56:27;;;;;;;0.60;0.60;;;;;;;;;;4986340;28;20498;-72
2022/06/07 10:58:53;;;;;;;4.03;1.08;;;;;;;;;;4974033;28;20050;-71
2022/06/07 11:01:23;;;;;;;1.17;0.75;;;;;;;;;;5053715;28;20048;-71
2022/06/07 11:04:08;;;;;;;1.20;0.85;;;;;;;;;;5088353;28;20028;-76
2022/06/07 11:09:47;;;;;;;0.57;0.57;;;;;;;;;;5087908;28;20032;-74
2022/06/07 11:12:17;;;;;;;2.85;1.80;;;;;;;;;;5069666;28;20123;-74
2022/06/07 11:15:06;;;;;;;0.73;0.73;;;;;;;;;;5088013;28;20035;-72
2022/06/07 11:17:38;;;;;;;4.65;2.75;;;;;;;;;;5087812;28;20092;-71
2022/06/07 11:20:24;;;;;;;8.10;5.90;;;;;;;;;;5087625;28;20054;-71
2022/06/07 11:23:08;;;;;;;12.98;9.07;;;;;;;;;;5088017;28;20501;-69
2022/06/07 11:25:36;;;;;;;13.00;8.13;;;;;;;;;;5087694;28;20036;-69
2022/06/07 11:28:10;;;;;;;10.27;6.53;;;;;;;;;;5087612;28;20454;-69
2022/06/07 11:30:37;;;;;;;4.40;3.25;;;;;;;;;;5087668;28;20039;-69
2022/06/07 11:33:23;;;;;;;2.50;0.80;;;;;;;;;;5088107;28;20036;-69
2022/06/07 11:35:54;;;;;;;1.98;1.10;;;;;;;;;;5069330;28;20043;-70
2022/06/07 11:38:19;;;;;;;13.02;2.45;;;;;;;;;;5090884;28;20032;-70
2022/06/07 11:40:46;;;;;;;0.30;0.30;;;;;;;;;;5072945;28;20043;-70
2022/06/07 11:43:30;;;;;;;0.70;0.70;;;;;;;;;;5090866;28;20032;-70
2022/06/07 11:45:55;;;;;;;7.90;4.47;;;;;;;;;;5090522;28;20065;-69
2022/06/07 11:48:22;;;;;;;11.32;6.40;;;;;;;;;;5090693;28;20028;-69
2022/06/07 11:50:56;;;;;;;8.18;5.85;;;;;;;;;;5090833;28;20036;-70
2022/06/07 11:53:27;;;;;;;3.65;3.22;;;;;;;;;;5072723;28;20032;-70
2022/06/07 11:55:57;;;;;;;5.93;4.45;;;;;;;;;;5090899;28;20032;-69
2022/06/07 11:58:41;;;;;;;4.70;2.75;;;;;;;;;;5090739;28;20100;-69
2022/06/07 12:01:27;;;;;;;6.10;1.67;;;;;;;;;;5090503;28;20468;-69
2022/06/07 12:04:11;;;;;;;1.50;1.20;;;;;;;;;;5073600;28;20047;-71
2022/06/07 12:06:39;;;;;;;8.68;3.30;;;;;;;;;;5090722;28;20036;-73
2022/06/07 12:09:05;;;;;;;6.07;1.60;;;;;;;;;;5090701;28;20036;-71
2022/06/07 12:11:34;;;;;;;4.85;1.60;;;;;;;;;;5072556;28;20058;-73
2022/06/07 12:14:05;;;;;;;21.90;1.80;;;;;;;;;;5088881;28;20471;-74
2022/06/07 12:16:36;;;;;;;3.22;1.40;;;;;;;;;;5090420;28;20028;-73
2022/06/07 12:19:03;;;;;;;5.80;2.00;;;;;;;;;;5090337;28;20028;-74
2022/06/07 12:21:32;;;;;;;2.20;0.93;;;;;;;;;;5088142;28;20044;-74
2022/06/07 12:24:09;;;;;;;2.60;1.50;;;;;;;;;;5090287;28;20562;-74
2022/06/07 12:26:34;;;;;;;1.63;1.30;;;;;;;;;;5088163;28;20035;-74
2022/06/07 12:29:11;;;;;;;2.47;1.20;;;;;;;;;;5089733;28;20051;-74
2022/06/07 12:31:44;;;;;;;0.73;0.68;;;;;;;;;;5081028;28;20036;-74
2022/06/07 12:34:16;;;;;;;1.13;0.95;;;;;;;;;;5084411;28;20044;-74
2022/06/07 12:36:42;;;;;;;1.15;1.02;;;;;;;;;;5081031;28;20551;-79
2022/06/07 12:39:15;;;;;;;4.38;1.35;;;;;;;;;;5075403;28;20119;-75
2022/06/07 12:42:03;;;;;;;3.25;1.73;;;;;;;;;;5075460;28;20040;-76
2022/06/07 12:44:35;;;;;;;3.53;1.17;;;;;;;;;;5067095;28;20032;-75
2022/06/07 12:47:02;;;;;;;4.38;1.42;;;;;;;;;;5066301;28;20033;-74
2022/06/07 12:49:31;;;;;;;6.65;1.50;;;;;;;;;;5074897;28;20111;-76
2022/06/07 12:52:01;;;;;;;0.90;0.45;;;;;;;;;;5089186;28;20534;-77
2022/06/07 12:54:28;;;;;;;3.50;1.02;;;;;;;;;;5054873;28;20462;-77
2022/06/07 12:56:55;;;;;;;3.40;0.60;;;;;;;;;;5077303;28;20063;-79
2022/06/07 12:59:23;;;;;;;0.82;0.60;;;;;;;;;;5060535;28;20029;-80
2022/06/07 13:01:49;;;;;;;5.85;1.17;;;;;;;;;;5035775;28;20071;-79
2022/06/07 13:04:15;;;;;;;6.60;1.73;;;;;;;;;;5057336;28;20046;-81
2022/06/07 13:06:55;;;;;;;4.15;1.70;;;;;;;;;;5089052;28;20024;-86
2022/06/07 13:09:21;;;;;;;2.45;1.63;;;;;;;;;;5090037;28;20046;-76
2022/06/07 13:11:47;;;;;;;1.63;0.68;;;;;;;;;;5089928;28;20123;-77
2022/06/07 13:14:16;;;;;;;0.90;0.75;;;;;;;;;;5089826;28;20470;-78
2022/06/07 13:16:43;;;;;;;4.97;1.58;;;;;;;;;;5089866;28;20058;-80
2022/06/07 13:19:12;;;;;;;3.28;1.45;;;;;;;;;;5089758;28;20047;-78
2022/06/07 13:21:39;;;;;;;3.17;1.47;;;;;;;;;;5089710;28;20032;-76
2022/06/07 13:24:06;;;;;;;3.17;0.90;;;;;;;;;;5083420;28;20085;-76
2022/06/07 13:26:42;;;;;;;2.20;1.23;;;;;;;;;;5068741;28;20024;-77
2022/06/07 13:29:10;;;;;;;6.25;1.17;;;;;;;;;;5084237;28;20067;-77
2022/06/07 13:31:51;;;;;;;3.05;1.20;;;;;;;;;;5062386;28;20465;-76
2022/06/07 13:34:19;;;;;;;1.67;0.93;;;;;;;;;;5090827;28;20086;-81
2022/06/07 13:36:46;;;;;;;2.58;1.35;;;;;;;;;;5090275;28;20032;-76
2022/06/07 13:39:20;;;;;;;3.05;0.82;;;;;;;;;;5087082;28;20047;-75
2022/06/07 13:41:48;;;;;;;6.03;1.23;;;;;;;;;;5084174;28;20062;-76
2022/06/07 13:44:14;;;;;;;3.65;1.10;;;;;;;;;;5079638;28;20031;-75
2022/06/07 13:46:51;;;;;;;2.67;0.95;;;;;;;;;;5090076;28;20032;-75
2022/06/07 13:55:01;;;;;;;7.78;1.63;;;;;;;;;;5089891;28;20036;-76
2022/06/07 13:57:28;;;;;;;0.52;0.52;;;;;;;;;;5089801;28;20542;-76
2022/06/07 13:59:54;;;;;;;3.50;1.15;;;;;;;;;;5070668;28;20489;-76
2022/06/07 14:02:20;;;;;;;6.88;1.13;;;;;;;;;;5089420;28;20040;-77
2022/06/07 14:04:46;;;;;;;5.55;1.33;;;;;;;;;;5072450;28;20505;-76
2022/06/07 14:07:13;;;;;;;1.98;0.95;;;;;;;;;;5091144;28;20510;-76
2022/06/07 14:09:40;;;;;;;3.70;2.05;;;;;;;;;;5090590;28;20376;-74
2022/06/07 14:12:05;;;;;;;0.52;0.45;;;;;;;;;;5071688;28;20047;-76
2022/06/07 14:14:31;;;;;;;3.28;1.48;;;;;;;;;;5071463;28;20039;-75
2022/06/07 14:17:05;;;;;;;0.40;0.40;;;;;;;;;;5089844;28;20463;-77
2022/06/07 14:19:38;;;;;;;6.78;1.38;;;;;;;;;;5070404;28;20471;-75
2022/06/07 14:22:15;;;;;;;0.80;0.70;;;;;;;;;;5088651;28;20242;-74
2022/06/07 14:24:40;;;;;;;2.53;0.70;;;;;;;;;;5089360;28;20036;-78
2022/06/07 14:27:11;;;;;;;5.57;1.10;;;;;;;;;;5088931;28;20081;-77
2022/06/07 14:29:36;;;;;;;2.35;1.13;;;;;;;;;;5088173;28;20047;-78
2022/06/07 14:32:02;;;;;;;1.15;0.70;;;;;;;;;;5088650;28;20028;-76
2022/06/07 14:34:28;;;;;;;3.08;1.15;;;;;;;;;;5087974;28;20052;-77
2022/06/07 14:36:55;;;;;;;3.83;1.30;;;;;;;;;;5089170;28;20044;-77
2022/06/07 14:39:21;;;;;;;0.65;0.57;;;;;;;;;;5070898;28;20036;-75
2022/06/07 14:41:47;;;;;;;1.48;0.95;;;;;;;;;;5089003;28;20475;-77
2022/06/07 14:44:13;;;;;;;5.43;1.58;;;;;;;;;;5088924;28;20039;-74
2022/06/07 14:46:39;;;;;;;2.05;0.65;;;;;;;;;;5088861;28;20040;-76
2022/06/07 14:49:08;;;;;;;3.88;1.33;;;;;;;;;;5088641;28;20048;-75
2022/06/07 14:51:39;;;;;;;6.25;1.23;;;;;;;;;;5089810;28;20559;-79
2022/06/07 14:54:25;;;;;;;1.77;0.88;;;;;;;;;;5089624;28;20055;-74
2022/06/07 14:56:50;;;;;;;6.18;1.60;;;;;;;;;;5089717;28;20074;-73
2022/06/07 14:59:17;;;;;;;0.70;0.70;;;;;;;;;;5088724;28;20032;-76
2022/06/07 15:01:47;;;;;;;0.68;0.68;;;;;;;;;;5087569;28;20444;-87
2022/06/07 15:04:21;;;;;;;0.55;0.47;;;;;;;;;;5069239;28;20039;-75
2022/06/07 15:06:47;;;;;;;1.83;0.85;;;;;;;;;;5087815;28;20107;-78
2022/06/07 15:09:14;;;;;;;4.85;1.67;;;;;;;;;;5079185;28;20111;-75
2022/06/07 15:11:40;;;;;;;3.17;1.10;;;;;;;;;;5058070;28;20044;-75
2022/06/07 15:14:06;;;;;;;3.28;1.10;;;;;;;;;;5071935;28;20031;-76
2022/06/07 15:16:33;;;;;;;4.25;1.33;;;;;;;;;;5072688;28;20036;-73
2022/06/07 15:19:01;;;;;;;0.93;0.60;;;;;;;;;;5075172;28;20102;-75
2022/06/07 15:21:30;;;;;;;5.63;0.77;;;;;;;;;;5070778;28;20036;-75
2022/06/07 15:23:56;;;;;;;3.42;1.50;;;;;;;;;;5075924;28;20039;-80
2022/06/07 15:26:23;;;;;;;0.52;0.45;;;;;;;;;;5071530;28;20033;-77